Time;durP1;ratioP1;P1;durP2;ratioP2;P2;SDS_P1;SDS_P2;PMS_P1;PMS_P2;Temp;Humidity;BMP_temperature;BMP_pressure;BME280_temperature;BME280_humidity;BME280_pressure;Samples;Min_cycle;Max_cycle;Signal;HPM_P1;HPM_P2
2020/12/24 00:00:00;;;;;;;1.43;1.00;;;;;;;10.61;88.96;95908.81;5054464;28;20706;-54
2020/12/24 00:02:25;;;;;;;1.40;1.07;;;;;;;10.54;89.48;95916.03;5054519;28;20455;-55
2020/12/24 00:04:51;;;;;;;0.60;0.60;;;;;;;10.54;88.83;95927.34;5061967;28;20184;-56
2020/12/24 00:07:16;;;;;;;1.23;0.80;;;;;;;10.61;88.41;95935.88;5074249;28;20272;-55
2020/12/24 00:09:44;;;;;;;0.50;0.50;;;;;;;10.38;87.10;95934.13;5059962;28;20231;-54
2020/12/24 00:12:11;;;;;;;0.40;0.40;;;;;;;10.50;86.28;95928.03;5054440;28;20176;-53
2020/12/24 00:14:36;;;;;;;1.13;0.70;;;;;;;10.63;84.22;95912.78;5054644;28;20405;-55
2020/12/24 00:17:02;;;;;;;1.60;0.50;;;;;;;10.50;81.59;95920.97;5053511;28;20751;-55
2020/12/24 00:19:27;;;;;;;0.63;0.60;;;;;;;10.55;81.88;95915.78;5053708;28;20248;-54
2020/12/24 00:21:52;;;;;;;0.60;0.60;;;;;;;10.61;81.68;95906.97;5054702;28;20586;-56
2020/12/24 00:24:18;;;;;;;0.50;0.50;;;;;;;10.67;82.01;95905.25;5054025;28;20185;-56
2020/12/24 00:26:43;;;;;;;0.67;0.50;;;;;;;10.59;81.26;95916.91;5054094;28;20179;-56
2020/12/24 00:29:10;;;;;;;0.50;0.50;;;;;;;10.73;81.41;95920.03;5054046;28;20655;-53
2020/12/24 00:31:36;;;;;;;1.23;0.40;;;;;;;10.67;80.54;95907.88;5054350;28;20184;-56
2020/12/24 00:34:02;;;;;;;1.00;0.90;;;;;;;10.68;80.46;95925.22;5053972;28;20914;-53
2020/12/24 00:36:28;;;;;;;1.13;0.63;;;;;;;10.84;80.79;95921.81;5053165;28;20447;-56
2020/12/24 00:38:55;;;;;;;0.50;0.50;;;;;;;10.68;81.48;95912.06;5053364;28;20179;-55
2020/12/24 00:41:20;;;;;;;0.67;0.47;;;;;;;10.68;81.49;95906.81;5053764;28;20518;-53
2020/12/24 00:43:46;;;;;;;0.60;0.50;;;;;;;10.57;82.43;95918.19;5053511;28;20488;-54
2020/12/24 00:46:11;;;;;;;0.60;0.50;;;;;;;10.54;83.21;95910.78;5053524;28;20821;-53
2020/12/24 00:48:37;;;;;;;0.40;0.30;;;;;;;10.47;84.77;95903.06;5053642;28;20580;-55
2020/12/24 00:51:02;;;;;;;1.20;0.40;;;;;;;10.60;84.29;95915.88;5053271;28;20672;-55
2020/12/24 00:53:28;;;;;;;0.60;0.50;;;;;;;10.57;84.94;95915.56;5053707;28;20178;-54
2020/12/24 00:55:53;;;;;;;0.80;0.60;;;;;;;10.77;84.99;95927.22;5053942;28;20178;-56
2020/12/24 00:58:18;;;;;;;0.73;0.70;;;;;;;10.66;85.71;95937.78;5053016;28;20203;-53
2020/12/24 01:00:44;;;;;;;0.70;0.57;;;;;;;10.73;85.73;95938.44;5052321;28;20191;-53
2020/12/24 01:03:09;;;;;;;0.77;0.60;;;;;;;10.67;86.18;95939.38;5053255;28;20190;-53
2020/12/24 01:05:35;;;;;;;0.60;0.60;;;;;;;10.64;87.18;95935.41;5053743;28;20267;-53
2020/12/24 01:08:01;;;;;;;0.60;0.53;;;;;;;10.88;86.36;95928.97;5053134;28;20227;-55
2020/12/24 01:10:26;;;;;;;1.17;0.40;;;;;;;10.70;88.53;95946.78;5053547;28;20251;-54
2020/12/24 01:12:51;;;;;;;2.30;0.70;;;;;;;10.78;89.37;95951.69;5053590;28;20421;-51
2020/12/24 01:15:17;;;;;;;0.70;0.50;;;;;;;10.67;89.99;95947.28;5053445;28;20224;-51
2020/12/24 01:17:42;;;;;;;1.87;0.43;;;;;;;10.68;90.68;95948.84;5052687;28;20168;-52
2020/12/24 01:20:08;;;;;;;0.70;0.40;;;;;;;10.31;93.09;95956.31;5053477;28;20207;-51
2020/12/24 01:22:34;;;;;;;1.10;0.60;;;;;;;10.24;94.00;95945.16;5053069;28;20173;-52
2020/12/24 01:25:00;;;;;;;0.63;0.43;;;;;;;10.35;94.21;95931.19;5053929;28;20200;-51
2020/12/24 01:27:25;;;;;;;1.00;0.80;;;;;;;10.71;93.32;95940.50;5053003;28;20448;-54
2020/12/24 01:29:51;;;;;;;0.60;0.60;;;;;;;10.72;92.57;95942.09;5053226;28;20201;-54
2020/12/24 01:32:18;;;;;;;1.13;0.77;;;;;;;10.81;93.15;95951.19;5053438;28;20175;-51
2020/12/24 01:34:43;;;;;;;0.60;0.60;;;;;;;10.58;94.83;95956.56;5053342;28;20180;-51
2020/12/24 01:37:08;;;;;;;0.50;0.50;;;;;;;10.77;94.35;95957.94;5052528;28;20413;-53
2020/12/24 01:39:34;;;;;;;0.50;0.50;;;;;;;10.64;94.81;95951.16;5053083;28;20660;-53
2020/12/24 01:41:59;;;;;;;0.40;0.40;;;;;;;10.47;96.62;95955.59;5052480;28;20578;-51
2020/12/24 01:44:24;;;;;;;1.23;0.40;;;;;;;10.31;97.97;95966.81;5053250;28;20186;-51
2020/12/24 01:46:50;;;;;;;0.70;0.60;;;;;;;10.25;98.25;95980.88;5052510;28;20169;-52
2020/12/24 01:49:19;;;;;;;0.83;0.40;;;;;;;10.31;97.74;95991.25;5052856;28;20575;-53
2020/12/24 01:51:53;;;;;;;0.90;0.60;;;;;;;10.33;96.66;95991.81;5053155;28;20256;-54
2020/12/24 01:54:21;;;;;;;0.50;0.50;;;;;;;10.06;96.67;95992.53;5052848;28;20789;-55
2020/12/24 01:56:47;;;;;;;0.60;0.60;;;;;;;9.87;96.64;95999.75;5052514;28;20424;-56
2020/12/24 01:59:16;;;;;;;0.50;0.50;;;;;;;10.03;94.22;95990.38;5052965;28;20444;-54
2020/12/24 02:01:46;;;;;;;0.40;0.40;;;;;;;10.03;94.46;95975.44;5052796;28;20431;-54
2020/12/24 02:04:12;;;;;;;2.00;0.50;;;;;;;10.11;93.64;95935.72;5053065;28;20421;-53
2020/12/24 02:06:47;;;;;;;0.80;0.50;;;;;;;10.11;90.61;95948.84;5052413;28;20452;-56
2020/12/24 02:09:33;;;;;;;0.90;0.60;;;;;;;9.62;91.46;95940.69;5052397;28;20470;-55
2020/12/24 02:11:59;;;;;;;2.20;0.50;;;;;;;9.68;89.07;95948.44;4993626;28;20790;-53
2020/12/24 02:14:24;;;;;;;0.60;0.50;;;;;;;9.50;87.68;95932.84;4995396;28;20467;-55
2020/12/24 02:16:50;;;;;;;1.00;0.43;;;;;;;9.42;85.25;95935.78;4994733;28;20191;-54
2020/12/24 02:19:15;;;;;;;1.07;0.60;;;;;;;9.49;86.14;95926.00;4995253;28;20739;-54
2020/12/24 02:21:41;;;;;;;1.70;0.40;;;;;;;9.47;86.93;95901.84;4994805;28;20206;-53
2020/12/24 02:24:06;;;;;;;4.27;1.47;;;;;;;9.61;83.83;95874.31;4995160;28;20690;-53
2020/12/24 02:26:32;;;;;;;0.40;0.30;;;;;;;9.59;82.92;95865.09;4994846;28;20339;-54
2020/12/24 02:28:57;;;;;;;1.83;0.60;;;;;;;9.58;82.06;95861.69;4995169;28;20649;-53
2020/12/24 02:31:23;;;;;;;1.80;0.70;;;;;;;9.53;82.70;95848.44;4994962;28;20232;-54
2020/12/24 02:33:49;;;;;;;1.73;0.43;;;;;;;9.55;80.33;95866.59;4995095;28;20599;-53
2020/12/24 02:36:14;;;;;;;1.60;0.50;;;;;;;9.49;82.23;95860.44;4994761;28;20298;-53
2020/12/24 02:38:40;;;;;;;1.23;0.60;;;;;;;9.67;83.03;95854.25;4993925;28;20297;-53
2020/12/24 02:41:05;;;;;;;1.60;0.50;;;;;;;9.70;82.50;95859.03;4994700;28;20686;-56
2020/12/24 02:43:31;;;;;;;0.60;0.40;;;;;;;9.67;81.97;95862.91;4994892;28;20239;-54
2020/12/24 02:45:56;;;;;;;0.70;0.50;;;;;;;9.58;83.60;95874.78;4978546;28;20635;-55
2020/12/24 02:48:21;;;;;;;0.63;0.63;;;;;;;9.65;83.63;95856.31;5010548;28;20186;-56
2020/12/24 02:50:47;;;;;;;1.17;0.70;;;;;;;9.76;84.03;95858.09;5055604;28;20213;-56
2020/12/24 02:53:12;;;;;;;0.70;0.53;;;;;;;9.67;84.49;95856.88;5056162;28;20177;-53
2020/12/24 02:55:38;;;;;;;0.40;0.30;;;;;;;9.80;84.37;95857.38;5055942;28;20180;-53
2020/12/24 02:58:04;;;;;;;0.73;0.60;;;;;;;9.62;84.48;95869.88;5054675;28;20176;-56
2020/12/24 03:00:30;;;;;;;1.90;0.50;;;;;;;9.47;85.24;95870.38;5055594;28;20197;-54
2020/12/24 03:02:55;;;;;;;0.80;0.50;;;;;;;9.23;85.74;95884.50;5056059;28;20417;-54
2020/12/24 03:05:21;;;;;;;0.43;0.43;;;;;;;9.20;86.98;95877.91;5055423;28;20177;-55
2020/12/24 03:07:50;;;;;;;0.77;0.60;;;;;;;9.35;86.73;95882.69;5055644;28;20176;-53
2020/12/24 03:10:16;;;;;;;1.00;0.40;;;;;;;9.09;87.29;95885.78;5055515;28;20204;-54
2020/12/24 03:12:42;;;;;;;0.73;0.60;;;;;;;9.00;88.04;95900.25;5054961;28;20422;-55
2020/12/24 03:15:07;;;;;;;1.53;0.60;;;;;;;9.15;88.16;95903.19;5055776;28;20222;-55
2020/12/24 03:17:32;;;;;;;0.70;0.60;;;;;;;9.12;88.04;95901.84;5054905;28;20183;-53
2020/12/24 03:19:58;;;;;;;1.60;1.37;;;;;;;9.09;88.53;95878.72;5055226;28;20280;-53
2020/12/24 03:22:23;;;;;;;1.80;0.60;;;;;;;9.09;88.67;95854.34;5054973;28;20169;-55
2020/12/24 03:24:49;;;;;;;0.70;0.40;;;;;;;9.01;89.33;95831.09;5055293;28;20173;-53
2020/12/24 03:27:14;;;;;;;0.90;0.40;;;;;;;8.86;89.97;95838.63;5054984;28;20200;-53
2020/12/24 03:29:39;;;;;;;1.93;0.47;;;;;;;9.11;89.75;95837.34;5054858;28;20289;-55
2020/12/24 03:32:05;;;;;;;1.13;0.30;;;;;;;9.30;89.48;95835.38;5055354;28;20222;-54
2020/12/24 03:34:30;;;;;;;0.40;0.30;;;;;;;9.28;89.29;95829.56;5055010;28;20172;-53
2020/12/24 03:36:55;;;;;;;0.50;0.40;;;;;;;9.33;89.36;95832.28;5055048;28;20589;-55
2020/12/24 03:39:21;;;;;;;0.50;0.50;;;;;;;9.07;90.78;95825.75;5054907;28;20199;-53
2020/12/24 03:41:46;;;;;;;0.40;0.40;;;;;;;8.95;91.81;95824.16;5055422;28;20202;-53
2020/12/24 03:44:11;;;;;;;0.90;0.57;;;;;;;8.77;93.13;95817.19;5054986;28;20175;-54
2020/12/24 03:46:38;;;;;;;1.23;0.50;;;;;;;8.56;94.56;95816.94;5054308;28;20180;-56
2020/12/24 03:49:03;;;;;;;1.43;0.60;;;;;;;8.60;94.49;95805.00;5054824;28;20218;-54
2020/12/24 03:51:29;;;;;;;0.97;0.40;;;;;;;8.63;94.25;95805.34;5054827;28;20453;-57
2020/12/24 03:53:54;;;;;;;0.97;0.40;;;;;;;8.65;93.83;95820.81;5055063;28;20520;-55
2020/12/24 03:56:20;;;;;;;1.33;0.50;;;;;;;8.68;93.44;95823.00;5054456;28;20168;-55
2020/12/24 03:58:45;;;;;;;2.60;0.50;;;;;;;8.68;93.84;95834.25;5054667;28;20256;-55
2020/12/24 04:01:10;;;;;;;1.00;0.57;;;;;;;8.84;92.87;95838.81;5053339;28;20191;-55
2020/12/24 04:03:36;;;;;;;1.43;0.40;;;;;;;8.80;92.85;95832.47;5054737;28;20243;-55
2020/12/24 04:06:04;;;;;;;3.37;0.90;;;;;;;8.66;93.56;95846.78;5054662;28;20167;-53
2020/12/24 04:08:29;;;;;;;3.20;0.60;;;;;;;8.68;93.40;95842.13;5054146;28;20199;-56
2020/12/24 04:10:55;;;;;;;2.60;0.50;;;;;;;8.66;92.55;95838.94;5054629;28;20805;-53
2020/12/24 04:13:20;;;;;;;2.27;0.90;;;;;;;8.58;92.54;95860.22;5054032;28;20171;-53
2020/12/24 04:15:45;;;;;;;0.70;0.70;;;;;;;8.55;92.17;95846.78;5054405;28;20180;-54
2020/12/24 04:18:11;;;;;;;0.60;0.60;;;;;;;8.80;91.53;95857.84;5054198;28;20176;-56
2020/12/24 04:20:36;;;;;;;3.43;0.70;;;;;;;8.61;91.50;95857.13;5053922;28;20188;-53
2020/12/24 04:23:01;;;;;;;0.57;0.50;;;;;;;8.75;91.49;95860.34;5054426;28;20173;-55
2020/12/24 04:25:27;;;;;;;0.57;0.47;;;;;;;8.80;91.10;95860.47;5054292;28;20210;-54
2020/12/24 04:27:52;;;;;;;1.77;0.43;;;;;;;8.66;92.14;95857.25;5053457;28;20171;-54
2020/12/24 04:30:18;;;;;;;0.40;0.40;;;;;;;8.56;92.74;95848.38;5054115;28;20295;-55
2020/12/24 04:32:43;;;;;;;2.30;0.63;;;;;;;8.59;92.72;95840.84;5053939;28;20572;-54
2020/12/24 04:35:08;;;;;;;2.47;0.63;;;;;;;8.39;94.39;95827.28;5053713;28;20653;-55
2020/12/24 04:37:34;;;;;;;1.23;0.60;;;;;;;8.46;93.66;95819.34;5053739;28;20205;-54
2020/12/24 04:39:59;;;;;;;1.00;0.40;;;;;;;8.66;93.76;95833.69;5053472;28;20203;-54
2020/12/24 04:42:25;;;;;;;0.53;0.40;;;;;;;8.70;93.06;95842.69;5053215;28;20672;-54
2020/12/24 04:44:51;;;;;;;0.60;0.53;;;;;;;8.81;93.15;95846.34;5053876;28;20173;-54
2020/12/24 04:47:20;;;;;;;1.40;0.60;;;;;;;8.38;94.55;95836.16;5054059;28;20173;-55
2020/12/24 04:49:46;;;;;;;0.80;0.47;;;;;;;8.74;93.41;95843.03;5053651;28;20249;-55
2020/12/24 04:52:15;;;;;;;1.00;0.37;;;;;;;8.44;94.18;95832.66;5053548;28;20446;-53
2020/12/24 04:54:41;;;;;;;3.17;0.50;;;;;;;8.63;94.45;95828.09;5053497;28;20192;-55
2020/12/24 04:57:08;;;;;;;1.07;0.30;;;;;;;8.50;93.54;95816.03;5053398;28;20491;-54
2020/12/24 04:59:34;;;;;;;1.93;0.40;;;;;;;8.36;93.48;95813.84;5053593;28;20450;-53
2020/12/24 05:02:01;;;;;;;0.63;0.40;;;;;;;8.51;92.97;95801.94;5053686;28;20453;-55
2020/12/24 05:04:26;;;;;;;1.70;0.57;;;;;;;8.48;93.21;95815.44;5053593;28;20424;-56
2020/12/24 05:07:08;;;;;;;0.50;0.40;;;;;;;8.73;91.82;95810.03;5053057;28;20425;-54
2020/12/24 05:09:34;;;;;;;0.60;0.40;;;;;;;8.62;91.81;95814.25;5052950;28;20191;-56
2020/12/24 05:12:00;;;;;;;1.07;0.33;;;;;;;8.60;91.79;95808.44;5052141;28;20407;-54
2020/12/24 05:14:28;;;;;;;0.40;0.40;;;;;;;8.51;92.25;95809.78;5053461;28;20405;-55
2020/12/24 05:17:04;;;;;;;0.87;0.40;;;;;;;8.68;91.57;95802.06;5052312;28;20417;-56
2020/12/24 05:19:34;;;;;;;0.40;0.40;;;;;;;8.54;91.88;95803.28;5053354;28;20571;-55
2020/12/24 05:22:20;;;;;;;0.40;0.40;;;;;;;8.43;91.61;95807.47;5053272;28;20535;-55
2020/12/24 05:24:46;;;;;;;1.90;0.40;;;;;;;8.15;93.36;95810.69;5052262;28;20418;-53
2020/12/24 05:27:16;;;;;;;0.90;0.40;;;;;;;8.20;93.17;95807.41;5052786;28;20420;-56
2020/12/24 05:29:44;;;;;;;1.07;0.40;;;;;;;8.30;92.95;95821.56;5053209;28;20458;-53
2020/12/24 05:32:10;;;;;;;4.10;1.30;;;;;;;8.26;92.53;95809.97;5053388;28;20409;-54
2020/12/24 05:34:36;;;;;;;2.00;0.60;;;;;;;8.21;92.83;95822.88;5052859;28;20409;-53
2020/12/24 05:37:16;;;;;;;0.50;0.50;;;;;;;8.15;93.07;95815.16;5052757;28;20451;-54
2020/12/24 05:39:43;;;;;;;1.40;0.40;;;;;;;8.09;93.05;95816.03;5052890;28;20201;-56
2020/12/24 05:42:09;;;;;;;0.67;0.50;;;;;;;8.10;93.69;95815.00;5052652;28;20424;-53
2020/12/24 05:44:35;;;;;;;0.50;0.50;;;;;;;8.33;92.59;95820.34;5052803;28;20504;-53
2020/12/24 05:47:01;;;;;;;0.43;0.43;;;;;;;8.18;92.28;95822.53;5054799;28;20176;-56
2020/12/24 05:49:28;;;;;;;1.40;0.40;;;;;;;8.20;93.04;95810.84;5056715;28;20438;-54
2020/12/24 05:51:57;;;;;;;0.60;0.60;;;;;;;7.98;93.42;95803.72;5057395;28;20170;-54
2020/12/24 05:54:23;;;;;;;0.50;0.50;;;;;;;8.07;93.17;95794.53;5056028;28;20416;-55
2020/12/24 05:56:49;;;;;;;0.40;0.40;;;;;;;7.97;93.86;95795.06;5056364;28;20421;-53
2020/12/24 05:59:17;;;;;;;1.33;0.50;;;;;;;7.98;93.11;95782.78;5057243;28;20432;-55
2020/12/24 06:02:05;;;;;;;0.43;0.43;;;;;;;8.10;92.31;95781.00;5056587;28;20407;-54
2020/12/24 06:04:46;;;;;;;0.80;0.60;;;;;;;8.03;92.99;95775.06;5056402;28;20437;-55
2020/12/24 06:07:15;;;;;;;0.60;0.60;;;;;;;8.02;92.62;95771.66;5056347;28;20434;-56
2020/12/24 06:09:42;;;;;;;1.93;0.60;;;;;;;7.87;92.57;95773.09;5056549;28;20940;-54
2020/12/24 06:12:24;;;;;;;3.90;0.70;;;;;;;7.88;93.17;95779.94;5056955;28;20411;-55
2020/12/24 06:14:55;;;;;;;3.90;0.70;;;;;;;7.86;93.11;95785.34;5056813;28;20402;-53
2020/12/24 06:17:22;;;;;;;0.70;0.57;;;;;;;7.74;93.44;95768.84;5055828;28;20510;-53
2020/12/24 06:19:48;;;;;;;2.47;0.83;;;;;;;7.98;92.80;95759.25;5056621;28;20424;-55
2020/12/24 06:22:15;;;;;;;2.40;0.77;;;;;;;8.31;91.08;95760.34;5056257;28;20866;-54
2020/12/24 06:24:44;;;;;;;1.93;0.63;;;;;;;8.40;90.38;95762.66;5056605;28;20579;-54
2020/12/24 06:27:15;;;;;;;0.50;0.50;;;;;;;8.51;89.24;95754.81;5056279;28;20494;-54
2020/12/24 06:29:45;;;;;;;1.23;0.67;;;;;;;8.43;89.69;95752.53;5056505;28;20819;-54
2020/12/24 06:32:12;;;;;;;1.93;0.70;;;;;;;8.52;89.48;95747.72;5054496;28;20415;-55
2020/12/24 06:34:40;;;;;;;3.83;0.90;;;;;;;8.83;87.74;95757.84;5056597;28;20415;-55
2020/12/24 06:37:16;;;;;;;1.20;0.67;;;;;;;8.57;88.77;95750.47;5055950;28;20496;-54
2020/12/24 06:39:48;;;;;;;1.73;0.70;;;;;;;8.69;88.26;95743.41;5055718;28;20453;-55
2020/12/24 06:42:35;;;;;;;1.20;0.60;;;;;;;8.76;88.11;95741.47;5054847;28;20588;-53
2020/12/24 06:45:02;;;;;;;4.03;0.60;;;;;;;8.85;87.99;95727.00;5055663;28;20423;-55
2020/12/24 06:47:28;;;;;;;2.53;0.87;;;;;;;8.78;87.71;95740.22;5055854;28;20402;-56
2020/12/24 06:49:53;;;;;;;0.90;0.70;;;;;;;8.58;88.16;95744.22;5055828;28;20811;-54
2020/12/24 06:52:30;;;;;;;1.40;0.70;;;;;;;8.89;87.88;95743.84;5054929;28;20676;-54
2020/12/24 06:55:23;;;;;;;1.70;0.80;;;;;;;8.79;86.67;95736.56;5056315;28;20266;-56
2020/12/24 06:57:48;;;;;;;1.77;1.33;;;;;;;8.66;87.68;95736.03;5052118;28;20565;-53
2020/12/24 07:00:21;;;;;;;2.60;1.00;;;;;;;8.70;88.03;95729.28;5055771;28;21012;-55
2020/12/24 07:02:49;;;;;;;1.83;0.87;;;;;;;8.46;88.71;95728.50;5054632;28;20306;-53
2020/12/24 07:05:42;;;;;;;3.67;0.97;;;;;;;8.30;89.76;95719.50;5055464;28;20440;-53
2020/12/24 07:08:33;;;;;;;1.93;1.00;;;;;;;8.38;89.63;95713.16;5055413;28;20398;-56
2020/12/24 07:11:03;;;;;;;4.00;0.90;;;;;;;8.26;89.96;95707.91;5054822;28;20465;-55
2020/12/24 07:13:39;;;;;;;3.27;0.90;;;;;;;8.20;89.40;95716.66;5055766;28;20447;-53
2020/12/24 07:16:06;;;;;;;5.50;0.77;;;;;;;8.06;89.94;95719.69;5055803;28;20457;-55
2020/12/24 07:18:33;;;;;;;1.87;0.80;;;;;;;7.88;90.15;95712.72;5055026;28;20415;-55
2020/12/24 07:21:00;;;;;;;0.70;0.60;;;;;;;7.95;88.67;95713.41;5055628;28;20457;-54
2020/12/24 07:23:30;;;;;;;3.30;0.97;;;;;;;7.80;89.10;95710.44;5055326;28;20975;-54
2020/12/24 07:25:59;;;;;;;3.67;0.70;;;;;;;7.74;89.18;95705.28;5054985;28;20919;-53
2020/12/24 07:28:29;;;;;;;2.40;0.83;;;;;;;7.76;88.67;95693.59;5054801;28;20406;-55
2020/12/24 07:30:59;;;;;;;1.70;0.70;;;;;;;8.01;88.09;95696.00;5055407;28;20460;-55
2020/12/24 07:33:25;;;;;;;6.83;1.30;;;;;;;7.78;87.79;95691.56;5055068;28;20775;-55
2020/12/24 07:35:51;;;;;;;4.40;1.23;;;;;;;7.92;87.45;95708.63;5055426;28;20417;-54
2020/12/24 07:38:28;;;;;;;1.63;1.00;;;;;;;8.01;86.31;95691.59;5044812;28;20982;-54
2020/12/24 07:40:54;;;;;;;2.67;0.90;;;;;;;7.78;86.83;95706.44;5052808;28;20255;-52
2020/12/24 07:43:19;;;;;;;5.23;1.00;;;;;;;7.84;86.62;95688.06;5055197;28;20464;-55
2020/12/24 07:45:45;;;;;;;6.43;1.30;;;;;;;8.00;85.89;95690.00;5054916;28;20708;-56
2020/12/24 07:48:28;;;;;;;5.30;1.13;;;;;;;7.97;86.31;95694.91;5053999;28;20182;-55
2020/12/24 07:50:53;;;;;;;2.10;0.83;;;;;;;7.95;85.01;95691.69;5060612;28;20235;-56
2020/12/24 07:53:20;;;;;;;3.20;1.27;;;;;;;7.94;84.79;95695.31;5054646;28;20570;-54
2020/12/24 07:55:46;;;;;;;5.47;1.17;;;;;;;7.87;85.50;95682.38;5054724;28;20693;-55
2020/12/24 07:58:13;;;;;;;5.47;1.00;;;;;;;7.77;85.21;95689.94;5053262;28;20412;-56
2020/12/24 08:00:52;;;;;;;6.37;0.90;;;;;;;7.89;85.30;95692.59;5054610;28;20518;-55
2020/12/24 08:03:19;;;;;;;2.57;0.87;;;;;;;7.85;84.35;95675.75;5054739;28;20412;-55
2020/12/24 08:05:47;;;;;;;4.23;1.03;;;;;;;8.03;83.76;95697.38;5054330;28;20425;-55
2020/12/24 08:08:21;;;;;;;3.20;0.90;;;;;;;7.85;83.19;95681.78;5054280;28;20408;-53
2020/12/24 08:10:47;;;;;;;1.70;0.80;;;;;;;7.71;83.75;95675.19;5053804;28;20462;-55
2020/12/24 08:13:13;;;;;;;6.33;1.17;;;;;;;7.87;83.97;95674.50;5054762;28;20408;-53
2020/12/24 08:15:44;;;;;;;1.17;0.70;;;;;;;7.59;83.33;95691.84;5054632;28;20648;-52
2020/12/24 08:18:11;;;;;;;3.13;0.87;;;;;;;7.76;84.00;95683.13;5053420;28;20261;-55
2020/12/24 08:20:57;;;;;;;0.93;0.60;;;;;;;7.83;84.34;95675.97;5054199;28;20426;-55
2020/12/24 08:23:48;;;;;;;1.80;0.80;;;;;;;7.77;84.76;95692.56;5054499;28;20934;-57
2020/12/24 08:26:14;;;;;;;1.37;0.73;;;;;;;7.66;85.03;95689.94;5049539;28;20504;-55
2020/12/24 08:28:50;;;;;;;2.30;0.70;;;;;;;7.80;84.98;95688.72;5053764;28;20772;-55
2020/12/24 08:31:17;;;;;;;2.50;0.73;;;;;;;7.71;84.32;95683.03;5054000;28;20481;-54
2020/12/24 08:33:47;;;;;;;3.20;0.73;;;;;;;7.68;85.37;95680.06;5053900;28;20943;-55
2020/12/24 08:36:14;;;;;;;3.07;0.67;;;;;;;7.65;85.16;95672.63;5054659;28;20477;-54
2020/12/24 08:38:39;;;;;;;2.50;0.77;;;;;;;7.59;85.45;95684.00;5052096;28;20919;-56
2020/12/24 08:41:06;;;;;;;1.43;0.73;;;;;;;7.39;85.89;95686.91;5033984;28;20445;-55
2020/12/24 08:43:32;;;;;;;0.63;0.50;;;;;;;7.24;86.55;95695.16;5034171;28;20209;-55
2020/12/24 08:45:58;;;;;;;1.00;0.70;;;;;;;7.28;87.31;95685.06;5034254;28;20899;-55
2020/12/24 08:48:33;;;;;;;1.23;0.67;;;;;;;7.30;87.58;95677.78;5041760;28;20429;-55
2020/12/24 08:50:59;;;;;;;1.47;0.73;;;;;;;7.23;88.13;95696.16;5053649;28;20211;-53
2020/12/24 08:53:25;;;;;;;1.23;0.70;;;;;;;7.07;88.19;95693.34;5053872;28;20486;-54
2020/12/24 08:55:51;;;;;;;3.30;0.77;;;;;;;7.16;88.30;95695.44;5053754;28;20196;-56
2020/12/24 08:58:17;;;;;;;2.57;0.60;;;;;;;7.23;88.28;95677.88;5053482;28;20824;-56
2020/12/24 09:00:42;;;;;;;2.27;1.97;;;;;;;7.32;89.11;95672.34;5053389;28;20193;-56
2020/12/24 09:03:24;;;;;;;1.53;1.00;;;;;;;7.20;88.04;95675.72;5052726;28;20654;-56
2020/12/24 09:05:50;;;;;;;0.60;0.60;;;;;;;7.26;87.89;95690.47;5053516;28;20668;-54
2020/12/24 09:08:28;;;;;;;2.20;0.47;;;;;;;7.15;88.50;95695.66;5053349;28;20494;-56
2020/12/24 09:10:54;;;;;;;2.00;0.80;;;;;;;7.26;88.76;95680.03;5053215;28;20192;-54
2020/12/24 09:13:20;;;;;;;3.00;0.60;;;;;;;7.49;88.22;95681.13;5053660;28;20768;-54
2020/12/24 09:15:45;;;;;;;1.50;0.70;;;;;;;7.40;87.91;95688.50;5053049;28;20433;-56
2020/12/24 09:18:11;;;;;;;1.27;0.60;;;;;;;7.32;88.21;95690.63;5053108;28;20172;-57
2020/12/24 09:20:38;;;;;;;1.33;0.63;;;;;;;7.35;87.45;95693.59;5052327;28;20196;-54
2020/12/24 09:23:22;;;;;;;1.13;0.50;;;;;;;7.42;87.10;95706.56;5052725;28;20434;-56
2020/12/24 09:25:47;;;;;;;1.13;0.70;;;;;;;7.51;87.06;95698.19;5035888;28;20409;-56
2020/12/24 09:28:21;;;;;;;0.80;0.60;;;;;;;7.37;87.62;95688.16;5050900;28;20469;-56
2020/12/24 09:30:47;;;;;;;0.77;0.40;;;;;;;7.38;87.97;95695.75;5049485;28;20202;-55
2020/12/24 09:33:13;;;;;;;2.67;0.63;;;;;;;7.49;87.57;95694.19;5048832;28;20543;-55
2020/12/24 09:35:38;;;;;;;3.13;0.67;;;;;;;7.40;88.37;95685.88;5047765;28;20513;-54
2020/12/24 09:38:03;;;;;;;0.60;0.60;;;;;;;7.41;87.31;95689.31;5049382;28;20630;-54
2020/12/24 09:40:29;;;;;;;0.90;0.60;;;;;;;7.49;87.27;95687.16;5048891;28;20288;-55
2020/12/24 09:42:54;;;;;;;0.60;0.60;;;;;;;7.51;86.87;95677.28;5049409;28;20180;-55
2020/12/24 09:45:21;;;;;;;0.87;0.50;;;;;;;7.49;86.19;95713.28;5049688;28;20523;-56
2020/12/24 09:47:47;;;;;;;1.27;0.60;;;;;;;7.52;86.60;95701.63;5048986;28;20176;-55
2020/12/24 09:50:13;;;;;;;1.40;0.60;;;;;;;7.68;86.23;95691.28;5049607;28;20465;-56
2020/12/24 09:52:39;;;;;;;1.37;0.50;;;;;;;7.57;85.95;95707.75;5049039;28;20220;-56
2020/12/24 09:55:05;;;;;;;1.30;0.67;;;;;;;7.67;86.49;95691.53;5049453;28;20415;-64
2020/12/24 09:57:34;;;;;;;1.07;0.73;;;;;;;7.90;85.30;95694.19;5048247;28;20461;-59
2020/12/24 10:00:01;;;;;;;1.77;0.60;;;;;;;7.70;85.30;95719.84;5048793;28;20197;-66
2020/12/24 10:02:29;;;;;;;0.70;0.53;;;;;;;7.61;86.07;95698.44;5049620;28;20443;-63
2020/12/24 10:04:54;;;;;;;2.67;0.70;;;;;;;7.77;85.46;95703.03;5047040;28;20455;-59
2020/12/24 10:07:23;;;;;;;1.23;0.97;;;;;;;7.74;84.72;95710.50;5047682;28;20450;-57
2020/12/24 10:09:53;;;;;;;1.30;0.40;;;;;;;7.81;85.49;95698.94;5048875;28;20199;-57
2020/12/24 10:12:19;;;;;;;1.77;0.50;;;;;;;7.80;84.81;95707.00;5049668;28;20983;-56
2020/12/24 10:14:45;;;;;;;1.40;0.70;;;;;;;7.99;85.03;95701.47;5052924;28;20475;-57
2020/12/24 10:17:11;;;;;;;3.00;2.40;;;;;;;8.10;84.71;95715.59;5052204;28;20433;-57
2020/12/24 10:19:36;;;;;;;2.50;0.80;;;;;;;8.15;83.86;95710.50;5052074;28;20453;-55
2020/12/24 10:22:02;;;;;;;2.30;1.13;;;;;;;8.09;84.55;95701.72;5052782;28;20171;-56
2020/12/24 10:24:27;;;;;;;1.70;0.73;;;;;;;7.97;84.90;95708.75;5050356;28;20205;-58
2020/12/24 10:26:55;;;;;;;1.87;1.77;;;;;;;8.12;85.42;95706.50;5050538;28;20231;-64
2020/12/24 10:29:20;;;;;;;2.40;1.97;;;;;;;8.11;84.71;95720.63;5050848;28;20194;-67
2020/12/24 10:31:46;;;;;;;2.90;2.70;;;;;;;8.16;84.71;95702.41;5049511;28;20882;-64
2020/12/24 10:34:12;;;;;;;3.37;3.07;;;;;;;8.24;84.13;95702.09;5072653;28;20546;-62
2020/12/24 10:36:37;;;;;;;1.23;0.90;;;;;;;8.29;84.42;95706.66;5063567;28;20193;-59
2020/12/24 10:39:06;;;;;;;15.23;14.20;;;;;;;8.46;83.92;95696.31;5055332;28;20915;-59
2020/12/24 10:41:32;;;;;;;5.33;5.03;;;;;;;8.50;83.54;95705.31;5055018;28;20191;-60
2020/12/24 10:43:57;;;;;;;1.10;1.00;;;;;;;8.54;82.42;95719.50;5055969;28;20434;-59
2020/12/24 10:46:22;;;;;;;0.80;0.60;;;;;;;8.31;82.96;95707.22;5053921;28;20183;-58
2020/12/24 10:48:48;;;;;;;0.97;0.73;;;;;;;8.20;83.03;95703.56;5055058;28;20178;-58
2020/12/24 10:51:17;;;;;;;1.43;0.93;;;;;;;8.32;83.05;95714.03;5054823;28;20206;-55
2020/12/24 10:53:43;;;;;;;1.43;1.03;;;;;;;8.33;83.12;95729.50;5055932;28;20174;-56
2020/12/24 10:56:15;;;;;;;2.90;0.70;;;;;;;8.34;83.32;95701.53;5055656;28;20429;-59
2020/12/24 10:58:45;;;;;;;0.87;0.60;;;;;;;8.37;83.33;95706.31;5054773;28;20592;-56
2020/12/24 11:01:11;;;;;;;1.30;0.67;;;;;;;8.07;83.91;95724.69;5054499;28;20436;-55
2020/12/24 11:03:37;;;;;;;2.87;1.50;;;;;;;8.23;84.15;95726.66;5055602;28;20916;-55
2020/12/24 11:06:05;;;;;;;6.43;3.67;;;;;;;8.39;83.19;95719.19;5040681;28;20445;-55
2020/12/24 11:08:30;;;;;;;1.60;0.87;;;;;;;8.17;83.30;95722.31;5075531;28;20488;-54
2020/12/24 11:10:56;;;;;;;0.60;0.60;;;;;;;8.19;82.75;95740.41;5075758;28;20456;-54
2020/12/24 11:13:21;;;;;;;1.20;0.80;;;;;;;8.26;84.06;95718.38;5076044;28;20571;-54
2020/12/24 11:15:46;;;;;;;1.93;0.60;;;;;;;8.40;83.13;95726.00;5075787;28;20202;-55
2020/12/24 11:18:13;;;;;;;0.60;0.60;;;;;;;8.39;82.90;95737.50;5074753;28;20159;-59
2020/12/24 11:20:39;;;;;;;1.37;0.40;;;;;;;8.37;83.01;95731.69;5055005;28;20233;-59
2020/12/24 11:23:04;;;;;;;1.67;0.83;;;;;;;8.32;83.04;95727.13;5055296;28;20414;-56
2020/12/24 11:25:29;;;;;;;2.53;0.60;;;;;;;8.33;83.38;95726.13;5055572;28;20648;-56
2020/12/24 11:27:55;;;;;;;0.60;0.60;;;;;;;8.37;82.49;95713.38;5055181;28;20512;-55
2020/12/24 11:30:20;;;;;;;1.63;1.00;;;;;;;8.35;83.17;95720.66;5054567;28;20226;-57
2020/12/24 11:32:45;;;;;;;2.57;1.10;;;;;;;8.65;82.35;95714.28;5054545;28;20172;-55
2020/12/24 11:35:11;;;;;;;0.80;0.80;;;;;;;8.83;81.24;95721.19;5049974;28;20249;-57
2020/12/24 11:37:36;;;;;;;1.40;1.30;;;;;;;8.72;81.30;95717.56;5035015;28;20180;-54
2020/12/24 11:40:02;;;;;;;2.20;1.20;;;;;;;9.13;80.19;95708.72;5046805;28;20199;-54